• Join FlightAware (Why Join?)
  • Login
  • US Flag 
03:00PM EDT


 

Airport Tracker/Info


-or-


 

Live Flight TrackerFlight Track Log ✈ UAL139 ✈ 05-Aug-2014 ✈ KDEN - RJAA / NRT

Flight Track Log - Related Links

Times and Time Zones

All times are in EDT time to prevent confusion due to time zone crossing. See the UAL139 flight status page for this flight to view local times or setup timezone preferences in your user account.

Time Position Orientation Groundspeed Altitude Reporting Facility
EDT Latitude Longitude Course Direction KTS MPH feet Rate Location/Type
05:33PM 39.9167 -104.6833 323° Northwest 209 241 6,500  Level Denver TRACON
05:34PM 39.9833 -104.6833 360° North 253 291 7,800 1,800 Climbing Denver TRACON
05:35PM 40.0833 -104.6833 360° North 290 334 10,400 1,920 Climbing Denver TRACON
05:36PM 40.1667 -104.6833 360° North 334 384 11,900 1,800 Climbing Denver TRACON
05:37PM 40.2500 -104.6833 360° North 435 501 13,700 2,340 Climbing Denver TRACON
05:38PM 40.3108 -104.6853 359° North 357 411 15,300 2,220 Climbing Denver Center
05:39PM 40.3890 -104.6889 323° Northwest  Level FlightAware Approximate
05:39PM 40.4175 -104.6822 North 378 435 17,500  Level Denver Center
05:40PM 40.5353 -104.6772 North 393 452 19,400 1,860 Climbing Denver Center
05:41PM 40.6453 -104.6681 North 392 451 21,400 1,740 Climbing Denver Center
05:42PM 40.7600 -104.6381 11° North 412 474 23,100 1,620 Climbing Denver Center
05:43PM 40.8772 -104.6081 11° North 426 490 24,800 1,500 Climbing Denver Center
05:44PM 41.0111 -104.5722 11° North 439 505 26,300 1,320 Climbing Denver Center
05:45PM 41.1292 -104.5889 354° North 446 513 27,600 1,500 Climbing Denver Center
05:46PM 41.2644 -104.6264 348° North 449 517 29,400 1,740 Climbing Denver Center
05:47PM 41.3819 -104.6647 346° North 449 517 31,200 1,500 Climbing Denver Center
05:48PM 41.5158 -104.7022 348° North 442 509 32,500 960 Climbing Denver Center
05:49PM 41.6342 -104.7344 348° North 453 521 33,300 840 Climbing Denver Center
05:50PM 41.7647 -104.8019 339° North 453 521 34,300 780 Climbing Denver Center
05:51PM 41.8203 -104.9344 299° West 447 514 35,000 480 Climbing Denver Center
05:52PM 41.8033 -105.1100 263° West 427 491 35,400 480 Climbing Denver Center
05:53PM 41.7869 -105.2656 262° West 433 498 36,000 240 Climbing Denver Center
05:54PM 41.7664 -105.4508 262° West 444 511 36,000  Level Denver Center
05:55PM 41.7481 -105.6181 262° West 466 536 36,000 60 Level Denver Center
05:56PM 41.7292 -105.7856 261° West 474 545 36,200 420 Climbing Denver Center
05:57PM 41.7044 -105.9775 260° West 473 544 36,900 720 Climbing Denver Center
05:58PM 41.6869 -106.1464 262° West 476 548 37,700 480 Climbing Denver Center
05:59PM 41.6650 -106.3372 261° West 466 536 38,000 120 Climbing Denver Center
06:00PM 41.6439 -106.5169 261° West 463 533 38,000  Level Denver Center
06:01PM 41.6253 -106.6806 261° West 463 533 38,000  Level Denver Center
06:02PM 41.6008 -106.8703 260° West 463 533 38,000  Level Denver Center
06:03PM 41.5800 -107.0322 260° West 463 533 38,000  Level Denver Center
06:04PM 41.5564 -107.2219 261° West 463 533 38,000  Level Denver Center
06:05PM 41.5367 -107.3828 261° West 463 533 38,000  Level Denver Center
06:07PM 41.5128 -107.5714 260° West 462 532 38,000  Level Denver Center
06:08PM 41.4914 -107.7325 260° West 462 532 38,000  Level Denver Center
06:09PM 41.4692 -107.8919 260° West 459 528 38,000  Level Salt Lake Center
06:10PM 41.4486 -108.0531 260° West 459 528 38,000  Level Salt Lake Center
06:11PM 41.4231 -108.2394 260° West 459 528 38,000  Level Salt Lake Center
06:12PM 41.4019 -108.4000 260° West 459 528 38,000  Level Salt Lake Center
06:13PM 41.3761 -108.5867 260° West 458 527 38,000  Level Salt Lake Center
06:14PM 41.3536 -108.7456 259° West 458 527 38,000  Level Salt Lake Center
06:15PM 41.3261 -108.9325 259° West 457 526 38,000  Level Salt Lake Center
06:16PM 41.3000 -109.0964 258° West 459 528 38,000  Level Salt Lake Center
06:17PM 41.2786 -109.2611 260° West 463 533 38,000  Level Salt Lake Center
06:18PM 41.2517 -109.4483 259° West 462 532 38,000  Level Salt Lake Center
06:19PM 41.2281 -109.6069 259° West 461 531 38,000  Level Salt Lake Center
06:20PM 41.2008 -109.7903 259° West 458 527 38,000  Level Salt Lake Center
06:21PM 41.1767 -109.9478 259° West 456 525 38,000  Level Salt Lake Center
06:22PM 41.1489 -110.1300 259° West 455 524 38,000  Level Salt Lake Center
06:23PM 41.1250 -110.2867 259° West 455 524 38,000  Level Salt Lake Center
06:24PM 41.1014 -110.4431 259° West 454 522 38,000  Level Salt Lake Center
06:25PM 41.0708 -110.6350 258° West 454 522 38,000  Level Salt Lake Center
06:26PM 41.0456 -110.7964 258° West 451 519 38,000  Level Salt Lake Center
06:27PM 41.0200 -110.9589 258° West 451 519 38,000  Level Salt Lake Center
06:33PM 40.8000 -112.0000 258° West 38,000  Level FlightAware ADS-B (KBTF)
06:34PM 40.8403 -112.1367 258° West 467 537 38,000  Level Salt Lake Center
06:35PM 40.8300 -112.3000 265° West 447 514 38,000  Level Salt Lake Center
06:36PM 40.8194 -112.4653 265° West 451 519 38,000  Level Salt Lake Center
06:37PM 40.8094 -112.6278 265° West 447 514 38,000  Level Salt Lake Center
06:38PM 40.7981 -112.7925 265° West 450 518 38,000  Level Salt Lake Center
06:40PM 40.7669 -112.9522 256° West 450 518 38,000  Level Salt Lake Center
06:41PM 40.7264 -113.1397 254° West 447 514 38,000  Level Salt Lake Center
06:42PM 40.6933 -113.2975 255° West 447 514 38,000  Level Salt Lake Center
06:47PM 40.6294 -114.1347 255° West 470 541 38,000  Level Salt Lake Center
06:48PM 40.6700 -114.2989 288° West 470 541 38,000 60 Level Salt Lake Center
06:49PM 40.7122 -114.4639 289° West 473 544 38,200 360 Climbing Salt Lake Center
06:50PM 40.7472 -114.6314 285° West 473 544 38,800 360 Climbing Salt Lake Center
06:51PM 40.7772 -114.8047 283° West 473 544 39,000 60 Climbing Salt Lake Center
06:52PM 40.8008 -114.9714 281° West 469 540 39,000  Level Salt Lake Center
06:53PM 40.8306 -115.1381 283° West 469 540 39,000  Level Salt Lake Center
06:54PM 40.8558 -115.3439 279° West 474 545 39,000  Level Salt Lake Center
06:55PM 40.8719 -115.5147 277° West 474 545 39,000 -60 Level Salt Lake Center
06:56PM 40.8475 -115.6806 259° West 465 535 38,900  Descending Salt Lake Center
06:57PM 40.8156 -115.8453 256° West 465 535 39,000  Climbing Salt Lake Center
06:58PM 40.7850 -116.0100 256° West 465 535 39,000  Level Salt Lake Center
06:59PM 40.7489 -116.1736 254° West 466 536 39,000  Level Salt Lake Center
07:00PM 40.7089 -116.3703 255° West 466 536 39,000  Level Salt Lake Center
07:01PM 40.6761 -116.5361 255° West 469 540 39,000  Level Salt Lake Center
07:02PM 40.6422 -116.7011 255° West 470 541 39,000  Level Salt Lake Center
07:03PM 40.6075 -116.8650 254° West 471 542 39,000  Level Salt Lake Center
07:04PM 40.5667 -117.0622 255° West 473 544 39,000  Level Salt Lake Center
07:05PM 40.5311 -117.2272 254° West 475 547 39,000 -60 Level Salt Lake Center
07:06PM 40.4953 -117.3928 254° West 475 547 38,900 -540 Descending Salt Lake Center
07:07PM 40.4581 -117.5611 254° West 477 549 38,000 -480 Descending Salt Lake Center
07:08PM 40.4211 -117.7325 254° West 485 558 38,000  Level Salt Lake Center
07:09PM 40.3761 -117.9372 254° West 487 560 38,000  Level Salt Lake Center
07:11PM 40.3378 -118.1092 254° West 489 563 38,000  Level Salt Lake Center
07:12PM 40.2992 -118.2803 254° West 490 564 38,000  Level Salt Lake Center
07:13PM 40.2619 -118.4544 254° West 495 570 38,000  Level Salt Lake Center
07:14PM 40.2169 -118.6503 253° West 499 574 38,000  Level Salt Lake Center
07:15PM 40.1764 -118.8231 253° West 499 574 38,000  Level Salt Lake Center
07:16PM 40.1367 -118.9992 254° West 503 579 38,000  Level Salt Lake Center
07:17PM 40.0958 -119.1769 253° West 508 585 38,000  Level Salt Lake Center
07:18PM 40.0458 -119.3908 253° West 513 590 38,000  Level Salt Lake Center
07:19PM 39.9936 -119.6056 252° West 515 593 38,000  Level Oakland Center
07:20PM 39.9497 -119.7869 253° West 521 600 38,000  Level Oakland Center
07:21PM 39.9064 -119.9678 253° West 523 602 38,000  Level Oakland Center
07:22PM 39.8633 -120.1478 253° West 523 602 38,000  Level Oakland Center
07:23PM 39.8200 -120.3275 253° West 522 601 38,000  Level Oakland Center
07:24PM 39.7744 -120.5086 252° West 524 603 38,000  Level Oakland Center
07:25PM 39.7289 -120.6936 252° West 535 616 38,000  Level Oakland Center
07:26PM 39.6753 -120.9111 252° West 533 613 38,000  Level Oakland Center
07:27PM 39.6303 -121.0908 252° West 531 611 38,000  Level Oakland Center
07:28PM 39.5878 -121.2572 252° West 530 610 38,000  Level Oakland Center
07:29PM 39.5417 -121.4394 252° West 530 610 38,000  Level Oakland Center
07:30PM 39.4956 -121.6194 252° West 527 606 38,000  Level Oakland Center
07:31PM 39.4531 -121.8117 254° West 527 606 38,000  Level Oakland Center
07:32PM 39.4125 -121.9914 254° West 526 605 38,000  Level Oakland Center
07:33PM 39.3628 -122.2067 253° West 525 604 38,000  Level Oakland Center
07:34PM 39.3214 -122.3847 253° West 523 602 38,000  Level Oakland Center
07:35PM 39.2789 -122.5611 253° West 523 602 38,000  Level Oakland Center
07:36PM 39.2369 -122.7372 253° West 518 596 38,000 -60 Level Oakland Center
07:37PM 39.1956 -122.9139 253° West 519 597 37,900  Descending Oakland Center
07:38PM 39.1536 -123.0886 253° West 518 596 38,000  Climbing Oakland Center
07:39PM 39.1114 -123.2667 253° West 518 596 38,000  Level Oakland Center
07:40PM 39.0600 -123.4761 253° West 518 596 38,000 180 Level Oakland Center
07:41PM 39.0175 -123.6514 253° West 517 595 38,400 420 Climbing Oakland Center
07:43PM 38.9725 -123.8264 252° West 517 595 38,900 240 Climbing Oakland Center
07:44PM 38.9303 -124.0011 253° West 504 580 39,000  Climbing Oakland Center
07:45PM 38.8872 -124.1667 252° West 504 580 39,000 -60 Level Oakland Center
07:46PM 38.8428 -124.3458 252° West 507 583 38,900 -60 Descending Oakland Center
07:47PM 38.7992 -124.5178 252° West 507 583 38,900  Level Oakland Center
07:48PM 38.7547 -124.6919 252° West 513 590 38,900  Level Oakland Center
07:49PM 38.7092 -124.8675 252° West 516 594 39,000  Climbing Oakland Center
07:50PM 38.6642 -125.0403 252° West 515 593 39,000 -60 Level Oakland Center
07:51PM 38.6203 -125.2114 252° West 513 590 38,900  Descending Oakland Center
07:52PM 38.5644 -125.4172 251° West 513 590 39,000  Climbing Oakland Center
07:53PM 38.5200 -125.5847 251° West 503 579 39,000 -60 Level Oakland Center
07:54PM 38.4744 -125.7547 251° West 503 579 38,900  Descending Oakland Center
07:55PM 38.4322 -125.9100 251° West 503 579 39,000  Climbing Oakland Center
07:56PM 38.3883 -126.0744 251° West 496 571 39,000  Level Oakland Center
07:57PM 38.3375 -126.2542 250° West 496 571 39,000 -60 Level Oakland Center
07:58PM 38.2928 -126.4233 251° West 501 577 38,900 -60 Descending Oakland Center
07:59PM 38.2467 -126.5894 251° West 501 577 38,900  Level Oakland Center
08:00PM 38.1903 -126.7872 250° West 499 574 38,900  Level Oakland Center
08:01PM 38.1439 -126.9533 250° West 499 574 39,000  Climbing Oakland Center
08:02PM 38.1506 -127.1267 273° West 499 574 39,000  Level Oakland Center
08:03PM 38.1833 -127.2333 288° West 497 572 39,000  Level Oakland Oceanic (ODAPS)
08:16PM 38.7333 -129.5333 286° West 492 566 39,000  Level Oakland Oceanic (ODAPS)
08:19PM 38.8333 -130.0000 289° West 482 555 39,000  Level Oakland Oceanic (ODAPS)
08:31PM 39.3000 -131.7833 288° West 469 540 39,000  Level Oakland Oceanic (ODAPS)
08:44PM 39.8333 -134.0333 286° West 472 543 39,000  Level Oakland Oceanic (ODAPS)
08:58PM 40.3167 -136.3167 285° West 469 540 39,000  Level Oakland Oceanic (ODAPS)
09:12PM 40.7667 -138.6333 283° West 467 537 39,000  Level Oakland Oceanic (ODAPS)
09:20PM 41.0000 -140.0000 288° West 463 533 39,000  Level Oakland Oceanic (ODAPS)
09:26PM 41.2167 -140.9000 288° West 460 529 39,000  Level Oakland Oceanic (ODAPS)
09:40PM 41.7500 -143.1833 286° West 458 527 39,000  Level Oakland Oceanic (ODAPS)
09:54PM 42.2167 -145.4333 285° West 451 519 40,000  Climbing Oakland Oceanic (ODAPS)
10:07PM 42.6167 -147.6667 283° West 449 517 40,000  Level Oakland Oceanic (ODAPS)
10:21PM 43.0000 -150.0000 281° West 521 600 40,000  Level Oakland Oceanic (ODAPS)
10:21PM 43.0000 -150.0000 281° West 464 534 40,000  Level Oakland Oceanic (ODAPS)
10:35PM 43.3167 -152.3500 280° West 466 536 40,000  Level Oakland Oceanic (ODAPS)
10:49PM 43.5833 -154.7833 278° West 472 543 40,000  Level Oakland Oceanic (ODAPS)
11:17PM 43.9833 -159.8000 277° West 469 540 40,000  Level Oakland Oceanic (ODAPS)
11:18PM 44.0000 -160.0000 273° West 485 558 40,000 60 Level Oakland Oceanic (ODAPS)
11:31PM 44.0833 -162.3500 272° West 487 560 41,000  Climbing Oakland Oceanic (ODAPS)
11:45PM 44.1167 -164.9000 270° West 490 564 41,000  Level Oakland Oceanic (ODAPS)
11:58PM 44.0833 -167.5000 268° West 492 566 41,000  Level Oakland Oceanic (ODAPS)
12:11AM 44.0000 -170.0000 266° West 513 590 41,000  Level Oakland Oceanic (ODAPS)
12:12AM 43.9833 -170.1667 266° West 516 594 41,000  Level Oakland Oceanic (ODAPS)
12:26AM 43.8000 -172.8667 264° West 516 594 41,000  Level Oakland Oceanic (ODAPS)
12:40AM 43.5500 -175.6167 262° West 529 609 41,000  Level Oakland Oceanic (ODAPS)
12:54AM 43.2167 -178.3833 260° West 528 608 41,000  Level Oakland Oceanic (ODAPS)
01:02AM 43.0000 180.0000 252° West 542 624 41,000  Level Oakland Oceanic (ODAPS)
01:08AM 42.7167 178.9000 251° West 543 625 41,000  Level Oakland Oceanic (ODAPS)
01:22AM 42.0000 176.2333 249° West 541 623 41,000  Level Oakland Oceanic (ODAPS)
01:35AM 41.2333 173.6667 247° West 538 619 41,000  Level Oakland Oceanic (ODAPS)
01:49AM 40.4167 171.1667 245° Southwest 533 613 41,000  Level Oakland Oceanic (ODAPS)
01:56AM 40.0000 170.0000 259° West 531 611 41,000  Level Oakland Oceanic (ODAPS)
02:03AM 39.7833 168.6500 258° West 527 606 41,000  Level Oakland Oceanic (ODAPS)
02:17AM 39.3333 166.1167 256° West 528 608 41,000  Level Oakland Oceanic (ODAPS)
02:18AM 39.3194 166.0287 256° West 527 606 41,000  Level FlightAware Transoceanic
02:19AM 39.2841 165.8428 256° West 527 606 41,000  Level FlightAware Transoceanic
02:20AM 39.2484 165.6571 256° West 527 606 41,000  Level FlightAware Transoceanic
02:21AM 39.2124 165.4716 256° West 527 606 41,000  Level FlightAware Transoceanic
02:22AM 39.1762 165.2863 256° West 527 606 41,000  Level FlightAware Transoceanic
02:23AM 39.1214 165.0210 256° West 528 608 41,000  Level FlightAware Transoceanic
02:24AM 39.0851 164.8390 256° West 528 608 41,000  Level FlightAware Transoceanic
02:25AM 39.0485 164.6572 255° West 528 608 41,000  Level FlightAware Transoceanic
02:26AM 39.0116 164.4756 255° West 528 608 41,000  Level FlightAware Transoceanic
02:27AM 38.9744 164.2942 255° West 528 608 41,000  Level FlightAware Transoceanic
02:28AM 38.9370 164.1130 255° West 528 608 41,000  Level FlightAware Transoceanic
02:29AM 38.8993 163.9320 255° West 528 608 41,000  Level FlightAware Transoceanic
02:30AM 38.8613 163.7512 255° West 528 608 41,000  Level FlightAware Transoceanic
02:31AM 38.8230 163.5706 255° West 528 608 41,000  Level FlightAware Transoceanic
02:32AM 38.7845 163.3901 255° West 528 608 41,000  Level FlightAware Transoceanic
02:33AM 38.7456 163.2099 254° West 528 608 41,000  Level FlightAware Transoceanic
02:34AM 38.7065 163.0298 254° West 528 608 41,000  Level FlightAware Transoceanic
02:35AM 38.6671 162.8500 254° West 528 608 41,000  Level FlightAware Transoceanic
02:36AM 38.6275 162.6703 254° West 528 608 41,000  Level FlightAware Transoceanic
02:37AM 38.5875 162.4909 254° West 528 608 41,000  Level FlightAware Transoceanic
02:38AM 38.5473 162.3116 254° West 528 608 41,000  Level FlightAware Transoceanic
02:39AM 38.5068 162.1326 254° West 528 608 41,000  Level FlightAware Transoceanic
02:40AM 38.4661 161.9538 254° West 528 608 41,000  Level FlightAware Transoceanic
02:41AM 38.4250 161.7751 254° West 528 608 41,000  Level FlightAware Transoceanic
02:42AM 38.3838 161.5967 253° West 528 608 41,000  Level FlightAware Transoceanic
02:43AM 38.3422 161.4184 253° West 528 608 41,000  Level FlightAware Transoceanic
02:44AM 38.3004 161.2404 253° West 528 608 41,000  Level FlightAware Transoceanic
02:45AM 38.2582 161.0626 253° West 528 608 41,000  Level FlightAware Transoceanic
02:46AM 38.2159 160.8850 253° West 528 608 41,000  Level FlightAware Transoceanic
02:47AM 38.1732 160.7076 253° West 528 608 41,000  Level FlightAware Transoceanic
02:48AM 38.1303 160.5303 253° West 528 608 41,000  Level FlightAware Transoceanic
02:49AM 38.0871 160.3534 253° West 528 608 41,000  Level FlightAware Transoceanic
02:50AM 38.0437 160.1766 253° West 528 608 41,000  Level FlightAware Transoceanic
02:51AM 38.0000 160.0000 259° West 528 608 41,000  Level FlightAware Transoceanic
02:52AM 37.9732 159.8263 259° West 528 608 41,000  Level FlightAware Transoceanic
02:53AM 37.9462 159.6528 259° West 528 608 41,000  Level FlightAware Transoceanic
02:54AM 37.9189 159.4794 259° West 528 608 41,000  Level FlightAware Transoceanic
02:55AM 37.8914 159.3061 259° West 528 608 41,000  Level FlightAware Transoceanic
02:56AM 37.8636 159.1330 258° West 528 608 41,000  Level FlightAware Transoceanic
02:57AM 37.8356 158.9600 258° West 528 608 41,000  Level FlightAware Transoceanic
02:58AM 37.8073 158.7871 258° West 528 608 41,000  Level FlightAware Transoceanic
02:59AM 37.7788 158.6143 258° West 528 608 41,000  Level FlightAware Transoceanic
03:00AM 37.7500 158.4417 258° West 528 608 41,000  Level FlightAware Transoceanic
03:01AM 37.7210 158.2692 258° West 528 608 41,000  Level FlightAware Transoceanic
03:02AM 37.6917 158.0969 258° West 528 608 41,000  Level FlightAware Transoceanic
03:03AM 37.6621 157.9247 258° West 528 608 41,000  Level FlightAware Transoceanic
03:04AM 37.6323 157.7526 258° West 528 608 41,000  Level FlightAware Transoceanic
03:05AM 37.6023 157.5807 258° West 528 608 41,000  Level FlightAware Transoceanic
03:06AM 37.5720 157.4089 257° West 528 608 41,000  Level FlightAware Transoceanic
03:07AM 37.5414 157.2372 257° West 528 608 41,000  Level FlightAware Transoceanic
03:08AM 37.5107 157.0657 257° West 528 608 41,000  Level FlightAware Transoceanic
03:09AM 37.4796 156.8943 257° West 528 608 41,000  Level FlightAware Transoceanic
03:10AM 37.4483 156.7231 257° West 528 608 41,000  Level FlightAware Transoceanic
03:11AM 37.4168 156.5520 257° West 528 608 41,000  Level FlightAware Transoceanic
03:12AM 37.3850 156.3811 257° West 528 608 41,000  Level FlightAware Transoceanic
03:13AM 37.3530 156.2103 257° West 528 608 41,000  Level FlightAware Transoceanic
03:14AM 37.3207 156.0397 257° West 528 608 41,000  Level FlightAware Transoceanic
03:15AM 37.2882 155.8692 256° West 528 608 41,000  Level FlightAware Transoceanic
03:16AM 37.2555 155.6988 256° West 528 608 41,000  Level FlightAware Transoceanic
03:17AM 37.2225 155.5286 256° West 528 608 41,000  Level FlightAware Transoceanic
03:18AM 37.1892 155.3585 256° West 528 608 41,000  Level FlightAware Transoceanic
03:19AM 37.1557 155.1886 256° West 528 608 41,000  Level FlightAware Transoceanic
03:20AM 37.1220 155.0189 256° West 528 608 41,000  Level FlightAware Transoceanic
03:21AM 37.0880 154.8493 256° West 528 608 41,000  Level FlightAware Transoceanic
03:22AM 37.0538 154.6798 256° West 528 608 41,000  Level FlightAware Transoceanic
03:23AM 37.0193 154.5105 256° West 528 608 41,000  Level FlightAware Transoceanic
03:24AM 36.9846 154.3414 256° West 528 608 41,000  Level FlightAware Transoceanic
03:25AM 36.9497 154.1724 255° West 528 608 41,000  Level FlightAware Transoceanic
03:26AM 36.9145 154.0036 255° West 528 608 41,000  Level FlightAware Transoceanic
03:27AM 36.8791 153.8349 255° West 528 608 41,000  Level FlightAware Transoceanic
03:28AM 36.8435 153.6664 255° West 528 608 41,000  Level FlightAware Transoceanic
03:29AM 36.8076 153.4980 255° West 528 608 41,000  Level FlightAware Transoceanic
03:30AM 36.7715 153.3298 255° West 528 608 41,000  Level FlightAware Transoceanic
03:31AM 36.7351 153.1618 255° West 528 608 41,000  Level FlightAware Transoceanic
03:32AM 36.6985 152.9939 255° West 528 608 41,000  Level FlightAware Transoceanic
03:33AM 36.6617 152.8262 255° West 528 608 41,000  Level FlightAware Transoceanic
03:34AM 36.6246 152.6586 255° West 528 608 41,000  Level FlightAware Transoceanic
03:35AM 36.5873 152.4912 254° West 528 608 41,000  Level FlightAware Transoceanic
03:36AM 36.5498 152.3240 254° West 528 608 41,000  Level FlightAware Transoceanic
03:37AM 36.5120 152.1569 254° West 528 608 41,000  Level FlightAware Transoceanic
03:38AM 36.4740 151.9900 254° West 528 608 41,000  Level FlightAware Transoceanic
03:39AM 36.4357 151.8232 254° West 528 608 41,000  Level FlightAware Transoceanic
03:40AM 36.3973 151.6566 254° West 528 608 41,000  Level FlightAware Transoceanic
03:41AM 36.3586 151.4902 254° West 528 608 41,000  Level FlightAware Transoceanic
03:42AM 36.3197 151.3240 254° West 528 608 41,000  Level FlightAware Transoceanic
03:43AM 36.2805 151.1579 254° West 528 608 41,000  Level FlightAware Transoceanic
03:44AM 36.2411 150.9920 254° West 528 608 41,000  Level FlightAware Transoceanic
03:45AM 36.2015 150.8262 253° West 528 608 41,000  Level FlightAware Transoceanic
03:46AM 36.1617 150.6606 253° West 528 608 41,000  Level FlightAware Transoceanic
03:47AM 36.1216 150.4952 253° West 528 608 41,000  Level FlightAware Transoceanic
03:48AM 36.0813 150.3300 253° West 528 608 41,000  Level FlightAware Transoceanic
03:49AM 36.0407 150.1649 253° West 528 608 41,000  Level FlightAware Transoceanic
03:50AM 36.0011 150.0045 253° West  Level FlightAware Approximate
03:51AM 35.9613 149.8443 253° West  Level FlightAware Approximate
03:52AM 35.9762 149.8446 259° West  Level FlightAware Approximate
03:53AM 35.9509 149.6799 259° West  Level FlightAware Approximate
03:54AM 35.9252 149.5154 259° West  Level FlightAware Approximate
03:55AM 35.8994 149.3510 259° West  Level FlightAware Approximate
03:56AM 35.8733 149.1865 259° West  Level FlightAware Approximate
03:57AM 35.8470 149.0221 259° West  Level FlightAware Approximate
03:58AM 35.8204 148.8578 259° West  Level FlightAware Approximate
03:59AM 35.7936 148.6935 259° West  Level FlightAware Approximate
04:00AM 35.7666 148.5294 259° West  Level FlightAware Approximate
04:01AM 35.7394 148.3655 258° West  Level FlightAware Approximate
04:02AM 35.7120 148.2016 258° West  Level FlightAware Approximate
04:03AM 35.6843 148.0378 258° West  Level FlightAware Approximate
04:04AM 35.6564 147.8742 258° West  Level FlightAware Approximate
04:05AM 35.6283 147.7106 258° West  Level FlightAware Approximate
04:06AM 35.6000 147.5472 258° West  Level FlightAware Approximate
04:07AM 35.5714 147.3839 258° West  Level FlightAware Approximate
04:08AM 35.5427 147.2208 258° West  Level FlightAware Approximate
04:09AM 35.5137 147.0577 258° West  Level FlightAware Approximate
04:10AM 35.4845 146.8947 258° West  Level FlightAware Approximate
04:11AM 35.4551 146.7319 258° West  Level FlightAware Approximate
04:12AM 35.4254 146.5692 257° West  Level FlightAware Approximate
04:13AM 35.3955 146.4066 257° West  Level FlightAware Approximate
04:14AM 35.3655 146.2442 257° West  Level FlightAware Approximate
04:15AM 35.3352 146.0818 257° West  Level FlightAware Approximate
04:16AM 35.3151 145.9179 268° West  Level FlightAware Approximate
04:17AM 35.3110 145.7516 268° West  Level FlightAware Approximate
04:18AM 35.3066 145.5852 268° West  Level FlightAware Approximate
04:19AM 35.3020 145.4188 268° West  Level FlightAware Approximate
04:20AM 35.2964 145.2525 267° West  Level FlightAware Approximate
04:21AM 35.2901 145.0863 267° West  Level FlightAware Approximate
04:22AM 35.2835 144.9201 267° West  Level FlightAware Approximate
04:23AM 35.2767 144.7539 267° West  Level FlightAware Approximate
04:24AM 35.2697 144.5877 267° West  Level FlightAware Approximate
04:25AM 35.2625 144.4216 267° West  Level FlightAware Approximate
04:26AM 35.2550 144.2555 267° West  Level FlightAware Approximate
04:27AM 35.2473 144.0894 267° West  Level FlightAware Approximate
04:28AM 35.2394 143.9234 267° West  Level FlightAware Approximate
04:29AM 35.2444 143.7595 289° West  Level FlightAware Approximate
04:30AM 35.2901 143.6032 302° West  Level FlightAware Approximate
04:31AM 35.3449 143.4519 289° West  Level FlightAware Approximate
04:32AM 35.3899 143.2945 289° West  Level FlightAware Approximate
04:33AM 35.4348 143.1369 289° West  Level FlightAware Approximate
04:34AM 35.4841 142.9813 292° West  Level FlightAware Approximate
04:35AM 35.5356 142.8266 292° West  Level FlightAware Approximate
04:36AM 35.5872 142.6719 292° West  Level FlightAware Approximate
04:37AM 35.6319 142.5139 288° West  Level FlightAware Approximate
04:38AM 35.6759 142.3556 292° West  Level FlightAware Approximate
04:39AM 35.7277 142.2007 292° West  Level FlightAware Approximate
04:40AM 35.7796 142.0445 292° West  Level FlightAware Approximate
04:41AM 35.8247 141.8849 289° West  Level FlightAware Approximate
04:42AM 35.8688 141.7249 287° West  Level FlightAware Approximate
04:43AM 35.8975 141.5617 265° West  Level FlightAware Approximate
04:44AM 35.8862 141.3931 265° West  Level FlightAware Approximate
04:45AM 35.8628 141.2267 258° West  Level FlightAware Approximate
04:46AM 35.8389 141.0604 261° West  Level FlightAware Approximate
04:47AM 35.8179 140.8933 261° West  Level FlightAware Approximate
04:48AM 35.8047 140.7255 262° West  Level FlightAware Approximate
04:49AM 35.7851 140.5583 258° West  Level Estimated
04:50AM 35.7653 140.3912 253° West  Level Estimated
04:51AM 35.7647 140.3864 253° West  Level Estimated
04:52AM 35.7647 140.3864 253° West  Level Estimated
04:53AM 35.7647 140.3864 253° West  Level Estimated
04:54AM 35.7647 140.3864 253° West  Level Estimated
04:55AM 35.7647 140.3864 253° West  Level Estimated
04:56AM 35.7647 140.3864 253° West  Level Estimated
04:57AM 35.7647 140.3864 253° West  Level Estimated
04:58AM 35.7647 140.3864 253° West  Level Estimated
04:59AM 35.7647 140.3864 253° West  Level Estimated
05:00AM 35.7647 140.3864 253° West  Level Estimated
05:01AM 35.7647 140.3864 253° West  Level Estimated
05:02AM 35.7647 140.3864 253° West  Level Estimated
05:03AM 35.7647 140.3864 253° West  Level Estimated
05:04AM 35.7647 140.3864 253° West  Level Estimated
05:05AM 35.7647 140.3864 253° West  Level Estimated
05:06AM 35.7647 140.3864 253° West  Level Estimated
05:07AM 35.7647 140.3864 253° West  Level Estimated
05:08AM 35.7647 140.3864 253° West  Level Estimated
05:09AM 35.7647 140.3864 253° West  Level Estimated
05:10AM 35.7647 140.3864 253° West  Level Estimated
05:11AM 35.7647 140.3864 253° West  Level Estimated
05:12AM 35.7647 140.3864 253° West  Level Estimated